Time;durP1;ratioP1;P1;durP2;ratioP2;P2;SDS_P1;SDS_P2;PMS_P1;PMS_P2;Temp;Humidity;BMP_temperature;BMP_pressure;BME280_temperature;BME280_humidity;BME280_pressure;Samples;Min_cycle;Max_cycle;Signal;HPM_P1;HPM_P2
2023/02/15 00:01:12;;;;;;;12.40;5.10;;;1.00;98.00;;;;;;5016029;28;20858;-66
2023/02/15 00:03:39;;;;;;;6.43;3.63;;;0.80;98.00;;;;;;5014283;28;20463;-66
2023/02/15 00:06:06;;;;;;;6.50;4.10;;;0.80;98.00;;;;;;5015223;28;20451;-67
2023/02/15 00:08:34;;;;;;;9.83;3.73;;;0.90;98.00;;;;;;5014950;28;20836;-67
2023/02/15 00:11:08;;;;;;;6.70;3.27;;;0.90;98.00;;;;;;5014915;28;20469;-66
2023/02/15 00:13:38;;;;;;;6.10;3.20;;;1.00;98.00;;;;;;5013719;28;20455;-67
2023/02/15 00:16:07;;;;;;;8.00;3.23;;;0.90;98.00;;;;;;5014947;28;20470;-67
2023/02/15 00:18:36;;;;;;;6.20;3.37;;;0.90;98.00;;;;;;5014888;28;20950;-67
2023/02/15 00:21:06;;;;;;;8.57;4.50;;;0.90;98.00;;;;;;5013903;28;20470;-67
2023/02/15 00:23:33;;;;;;;8.60;4.50;;;0.90;98.00;;;;;;5014858;28;20459;-67
2023/02/15 00:26:08;;;;;;;6.67;4.20;;;1.00;98.00;;;;;;5014622;28;20466;-66
2023/02/15 00:28:35;;;;;;;10.07;5.17;;;0.90;98.00;;;;;;5014460;28;20463;-67
2023/02/15 00:31:06;;;;;;;7.73;4.10;;;0.80;98.00;;;;;;5014656;28;20972;-67
2023/02/15 00:33:35;;;;;;;5.90;3.60;;;0.90;98.00;;;;;;5013362;28;20479;-67
2023/02/15 00:36:02;;;;;;;6.13;4.27;;;1.00;98.00;;;;;;5014535;28;20466;-66
2023/02/15 00:38:31;;;;;;;6.40;3.80;;;0.90;98.00;;;;;;5014218;28;20495;-67
2023/02/15 00:41:00;;;;;;;8.43;4.70;;;0.80;98.00;;;;;;5014532;28;20470;-67
2023/02/15 00:43:29;;;;;;;11.83;4.63;;;0.80;98.00;;;;;;5012904;28;20491;-67
2023/02/15 00:45:56;;;;;;;4.17;2.80;;;0.80;98.00;;;;;;5014447;28;20823;-66
2023/02/15 00:48:23;;;;;;;7.80;4.13;;;0.80;98.00;;;;;;5012908;28;20460;-67
2023/02/15 00:50:54;;;;;;;6.63;3.37;;;0.80;98.00;;;;;;5013074;28;20460;-67
2023/02/15 00:53:21;;;;;;;5.87;3.77;;;0.70;98.00;;;;;;5014006;28;20859;-67
2023/02/15 00:55:48;;;;;;;13.23;5.03;;;0.80;98.00;;;;;;5014126;28;20455;-66
2023/02/15 00:58:16;;;;;;;5.87;3.13;;;0.80;98.00;;;;;;5013906;28;21036;-67
2023/02/15 01:00:45;;;;;;;6.33;4.53;;;0.70;98.00;;;;;;5014083;28;20451;-67
2023/02/15 01:03:15;;;;;;;5.93;3.30;;;0.60;98.00;;;;;;5013836;28;20463;-66
2023/02/15 01:05:43;;;;;;;13.63;4.13;;;0.60;98.00;;;;;;5013961;28;20456;-66
2023/02/15 01:08:12;;;;;;;8.90;4.03;;;0.80;98.00;;;;;;5013745;28;20463;-66
2023/02/15 01:10:39;;;;;;;4.80;3.20;;;0.80;98.00;;;;;;5013765;28;20478;-67
2023/02/15 01:13:07;;;;;;;9.90;4.73;;;0.80;98.00;;;;;;5013781;28;20466;-66
2023/02/15 01:15:35;;;;;;;9.60;4.10;;;0.70;98.00;;;;;;5012660;28;20463;-67
2023/02/15 01:18:02;;;;;;;5.67;3.80;;;0.50;98.00;;;;;;5013583;28;20487;-66
2023/02/15 01:20:30;;;;;;;6.27;3.90;;;0.40;98.00;;;;;;5013856;28;20466;-66
2023/02/15 01:22:58;;;;;;;6.40;4.13;;;0.20;98.00;;;;;;5013529;28;20841;-67
2023/02/15 01:25:28;;;;;;;7.40;4.33;;;0.20;98.00;;;;;;5013457;28;20478;-66
2023/02/15 01:27:55;;;;;;;9.60;4.97;;;0.20;98.00;;;;;;5011889;28;20521;-66
2023/02/15 01:30:22;;;;;;;9.27;4.17;;;0.40;98.00;;;;;;5013282;28;20455;-67
2023/02/15 01:32:49;;;;;;;11.37;4.40;;;0.50;98.00;;;;;;5013124;28;20470;-66
2023/02/15 01:35:16;;;;;;;6.80;4.27;;;0.60;98.00;;;;;;5013417;28;20470;-66
2023/02/15 01:37:43;;;;;;;6.67;3.47;;;0.60;98.00;;;;;;5013081;28;20490;-66
2023/02/15 01:40:15;;;;;;;6.37;3.30;;;0.50;98.00;;;;;;5013009;28;20456;-66
2023/02/15 01:42:45;;;;;;;7.43;3.53;;;0.40;98.00;;;;;;5013060;28;20463;-66
2023/02/15 01:45:22;;;;;;;4.13;2.90;;;0.30;98.00;;;;;;5012951;28;20874;-66
2023/02/15 01:47:53;;;;;;;4.83;2.97;;;0.20;98.00;;;;;;5012930;28;20459;-66
2023/02/15 01:50:25;;;;;;;4.57;3.13;;;0.20;98.00;;;;;;5012999;28;20995;-66
2023/02/15 01:52:56;;;;;;;5.27;3.10;;;0.20;98.00;;;;;;5013149;28;20498;-66
2023/02/15 01:55:25;;;;;;;4.33;2.90;;;0.30;98.00;;;;;;5012710;28;20460;-66
2023/02/15 01:57:54;;;;;;;7.20;3.70;;;0.50;98.00;;;;;;5012671;28;20495;-66
2023/02/15 02:00:22;;;;;;;3.97;3.17;;;0.20;98.00;;;;;;5012765;28;20520;-66
2023/02/15 02:02:53;;;;;;;15.90;3.43;;;0.10;98.00;;;;;;5012857;28;21040;-66
2023/02/15 02:05:25;;;;;;;4.67;3.20;;;0.20;98.00;;;;;;5012700;28;20451;-66
2023/02/15 02:07:55;;;;;;;5.70;4.07;;;0.10;98.00;;;;;;5011456;28;20506;-66
2023/02/15 02:10:24;;;;;;;9.67;4.07;;;0.00;98.00;;;;;;5012587;28;20471;-66
2023/02/15 02:12:55;;;;;;;6.83;4.03;;;0.00;98.00;;;;;;5012560;28;20455;-66
2023/02/15 02:15:29;;;;;;;8.33;3.37;;;-0.10;98.00;;;;;;5011700;28;20467;-67
2023/02/15 02:18:09;;;;;;;7.93;3.17;;;-0.10;98.00;;;;;;5012441;28;20491;-66
2023/02/15 02:21:02;;;;;;;7.80;4.20;;;-0.20;98.00;;;;;;5012814;28;20459;-66
2023/02/15 02:23:39;;;;;;;6.03;3.27;;;-0.20;98.00;;;;;;5012257;28;20460;-66
2023/02/15 02:26:45;;;;;;;4.93;2.77;;;-0.30;98.00;;;;;;5012449;28;20557;-66
2023/02/15 02:29:45;;;;;;;7.87;2.97;;;-0.30;98.00;;;;;;5012412;28;20458;-66
2023/02/15 02:32:39;;;;;;;4.50;2.80;;;-0.20;98.00;;;;;;5012126;28;20459;-66
2023/02/15 02:35:15;;;;;;;2.40;2.00;;;-0.20;98.00;;;;;;4991275;28;20463;-66
2023/02/15 02:37:52;;;;;;;6.17;3.90;;;-0.10;98.00;;;;;;5012193;28;20498;-67
2023/02/15 02:40:26;;;;;;;4.07;3.17;;;0.00;98.00;;;;;;5012159;28;20561;-66
2023/02/15 02:43:01;;;;;;;3.37;2.70;;;0.10;98.00;;;;;;5010645;28;21019;-66
2023/02/15 02:45:35;;;;;;;4.73;2.20;;;0.00;98.00;;;;;;5011952;28;20466;-66
2023/02/15 02:48:07;;;;;;;5.90;3.10;;;-0.20;98.00;;;;;;5010454;28;20970;-67
2023/02/15 02:50:38;;;;;;;5.13;2.60;;;-0.20;98.00;;;;;;5012040;28;20480;-66
2023/02/15 02:53:05;;;;;;;5.57;2.87;;;-0.30;98.00;;;;;;5011727;28;20465;-66
2023/02/15 02:55:36;;;;;;;4.03;2.33;;;-0.40;98.00;;;;;;5011818;28;20657;-66
2023/02/15 02:58:07;;;;;;;8.10;3.33;;;-0.30;98.00;;;;;;5011576;28;21047;-66
2023/02/15 03:00:41;;;;;;;6.13;3.30;;;-0.10;98.00;;;;;;5011762;28;20465;-66
2023/02/15 03:03:14;;;;;;;3.47;2.70;;;-0.10;98.00;;;;;;5011616;28;20968;-66
2023/02/15 03:05:47;;;;;;;7.87;4.10;;;-0.10;98.00;;;;;;5011675;28;20470;-66
2023/02/15 03:08:21;;;;;;;4.87;2.93;;;0.00;98.00;;;;;;5011005;28;20467;-66
2023/02/15 03:10:52;;;;;;;5.03;2.63;;;0.00;98.00;;;;;;5010633;28;20540;-66
2023/02/15 03:13:20;;;;;;;8.57;2.47;;;-0.10;98.00;;;;;;5011778;28;20541;-66
2023/02/15 03:18:38;;;;;;;7.00;3.57;;;0.00;98.00;;;;;;5011439;28;20508;-66
2023/02/15 03:21:08;;;;;;;8.70;3.63;;;0.00;98.00;;;;;;5010382;28;20460;-66
2023/02/15 03:23:38;;;;;;;5.10;2.33;;;-0.20;98.00;;;;;;5011295;28;20478;-66
2023/02/15 03:26:08;;;;;;;4.53;2.80;;;-0.30;98.00;;;;;;5011459;28;20509;-67
2023/02/15 03:28:42;;;;;;;9.50;4.47;;;-0.40;98.00;;;;;;5010179;28;20473;-66
2023/02/15 03:31:12;;;;;;;5.77;3.73;;;-0.50;98.00;;;;;;5011431;28;20463;-67
2023/02/15 03:33:45;;;;;;;4.67;2.50;;;-0.60;98.00;;;;;;5011270;28;20470;-67
2023/02/15 03:36:22;;;;;;;3.80;2.90;;;-0.50;98.00;;;;;;5011301;28;20467;-67
2023/02/15 03:38:59;;;;;;;5.10;2.90;;;-0.50;98.00;;;;;;4994234;28;20903;-66
2023/02/15 03:41:30;;;;;;;5.83;2.47;;;-0.40;98.00;;;;;;5011256;28;20454;-66
2023/02/15 03:44:02;;;;;;;4.80;3.40;;;-0.60;98.00;;;;;;5011193;28;20528;-66
2023/02/15 03:46:34;;;;;;;2.53;2.03;;;-0.70;98.00;;;;;;5011375;28;20459;-66
2023/02/15 03:49:05;;;;;;;8.73;3.90;;;-0.70;98.00;;;;;;5011166;28;20478;-66
2023/02/15 03:51:39;;;;;;;4.20;3.13;;;-0.60;98.00;;;;;;5011209;28;20475;-66
2023/02/15 03:54:10;;;;;;;5.17;3.13;;;-0.60;98.00;;;;;;5010970;28;20469;-66
2023/02/15 03:56:38;;;;;;;13.10;2.93;;;-0.60;98.00;;;;;;5011215;28;20490;-66
2023/02/15 04:02:01;;;;;;;10.60;2.80;;;-0.80;98.00;;;;;;5011187;28;20446;-66
2023/02/15 04:04:35;;;;;;;6.57;3.80;;;-1.00;98.00;;;;;;5010249;28;20976;-66
2023/02/15 04:07:05;;;;;;;3.53;2.20;;;-1.00;98.00;;;;;;5010056;28;20473;-66
2023/02/15 04:12:17;;;;;;;6.37;2.90;;;-1.10;98.00;;;;;;5011336;28;20459;-66
2023/02/15 04:17:29;;;;;;;2.50;2.30;;;-1.00;98.00;;;;;;5011161;28;20450;-66
2023/02/15 04:25:26;;;;;;;6.37;4.17;;;-0.90;98.00;;;;;;5014752;28;20818;-66
2023/02/15 04:27:55;;;;;;;4.10;2.33;;;-0.90;98.00;;;;;;5014458;28;20880;-66
2023/02/15 04:30:25;;;;;;;5.00;2.70;;;-0.90;98.00;;;;;;5013313;28;20472;-66
2023/02/15 04:32:52;;;;;;;7.83;3.40;;;-0.90;98.00;;;;;;5014394;28;20458;-66
2023/02/15 04:35:19;;;;;;;5.20;2.60;;;-0.80;98.00;;;;;;5014359;28;20962;-66
2023/02/15 04:37:51;;;;;;;3.20;1.93;;;-0.80;98.00;;;;;;5014179;28;20488;-66
2023/02/15 04:40:19;;;;;;;4.10;2.80;;;-1.00;98.00;;;;;;5014329;28;20565;-66
2023/02/15 04:42:48;;;;;;;4.60;2.83;;;-1.10;98.00;;;;;;5014234;28;20459;-66
2023/02/15 04:45:15;;;;;;;5.83;3.30;;;-1.10;98.00;;;;;;5014139;28;20542;-66
2023/02/15 04:47:42;;;;;;;3.57;2.40;;;-1.20;98.00;;;;;;5014392;28;20478;-66
2023/02/15 04:50:11;;;;;;;4.23;2.40;;;-1.30;98.00;;;;;;5014016;28;20881;-66
2023/02/15 04:52:38;;;;;;;3.87;2.30;;;-1.30;98.00;;;;;;5014084;28;21015;-66
2023/02/15 04:55:08;;;;;;;4.07;2.60;;;-1.40;98.00;;;;;;5013961;28;20474;-66
2023/02/15 04:57:35;;;;;;;5.80;3.20;;;-1.20;98.00;;;;;;4996794;28;20981;-66
2023/02/15 05:00:03;;;;;;;3.77;2.83;;;-1.10;98.00;;;;;;5012751;28;20482;-66
2023/02/15 05:02:30;;;;;;;4.33;2.70;;;-1.20;98.00;;;;;;5014249;28;20502;-66
2023/02/15 05:04:57;;;;;;;6.77;2.90;;;-1.10;98.00;;;;;;5013736;28;20454;-66
2023/02/15 05:07:25;;;;;;;4.50;3.10;;;-1.20;98.00;;;;;;5014495;28;20458;-66
2023/02/15 05:09:52;;;;;;;3.03;2.30;;;-1.10;98.00;;;;;;5014669;28;20524;-66
2023/02/15 05:12:21;;;;;;;5.37;2.30;;;-1.00;98.00;;;;;;5014270;28;20450;-66
2023/02/15 05:14:48;;;;;;;4.87;2.47;;;-1.10;98.00;;;;;;5014089;28;20543;-66
2023/02/15 05:17:17;;;;;;;9.67;3.43;;;-1.20;98.00;;;;;;5014184;28;20449;-66
2023/02/15 05:19:44;;;;;;;5.93;3.83;;;-1.10;98.00;;;;;;5013790;28;20512;-66
2023/02/15 05:22:11;;;;;;;3.93;3.17;;;-1.10;98.00;;;;;;5013581;28;20520;-66
2023/02/15 05:30:11;;;;;;;5.73;3.27;;;-1.10;98.00;;;;;;5013130;28;20465;-66
2023/02/15 05:32:38;;;;;;;5.80;2.97;;;-1.10;98.00;;;;;;5011981;28;20838;-66
2023/02/15 05:35:06;;;;;;;5.20;2.87;;;-1.00;98.00;;;;;;5013211;28;20541;-66
2023/02/15 05:37:33;;;;;;;5.07;2.70;;;-1.00;98.00;;;;;;5013272;28;20462;-66
2023/02/15 05:40:00;;;;;;;6.60;3.07;;;-0.90;98.00;;;;;;5013212;28;20486;-66
2023/02/15 05:42:28;;;;;;;6.27;2.83;;;-1.00;98.00;;;;;;5011979;28;20454;-66
2023/02/15 05:44:57;;;;;;;6.53;2.97;;;-1.10;98.00;;;;;;5012960;28;20449;-66
2023/02/15 05:47:25;;;;;;;2.80;2.50;;;-1.20;98.00;;;;;;5013246;28;21083;-66
2023/02/15 05:49:52;;;;;;;4.97;3.20;;;-1.20;98.00;;;;;;5012886;28;20467;-66
2023/02/15 05:52:19;;;;;;;6.00;3.07;;;-1.10;98.00;;;;;;5013041;28;20668;-66
2023/02/15 05:54:46;;;;;;;6.20;2.67;;;-1.20;98.00;;;;;;5011908;28;20849;-66
2023/02/15 05:57:13;;;;;;;4.77;3.10;;;-1.20;98.00;;;;;;5012989;28;20458;-66
2023/02/15 05:59:42;;;;;;;2.50;2.30;;;-1.10;98.00;;;;;;5012714;28;20513;-66
2023/02/15 06:02:11;;;;;;;6.27;3.00;;;-1.20;98.00;;;;;;5012849;28;20536;-66
2023/02/15 06:04:38;;;;;;;9.77;3.33;;;-1.20;98.00;;;;;;5012684;28;21005;-66
2023/02/15 06:07:05;;;;;;;4.70;3.50;;;-1.30;98.00;;;;;;5012891;28;20451;-66
2023/02/15 06:09:32;;;;;;;2.83;2.20;;;-1.40;98.00;;;;;;5012860;28;20466;-66
2023/02/15 06:11:59;;;;;;;5.30;3.67;;;-1.50;98.00;;;;;;5012873;28;20454;-66
2023/02/15 06:14:28;;;;;;;3.97;2.43;;;-1.40;98.00;;;;;;5012546;28;20462;-66
2023/02/15 06:16:57;;;;;;;4.43;3.27;;;-1.30;98.00;;;;;;5011289;28;20466;-66
2023/02/15 06:19:24;;;;;;;5.00;2.80;;;-1.40;98.00;;;;;;5012419;28;20497;-66
2023/02/15 06:21:51;;;;;;;3.40;2.80;;;-1.40;98.00;;;;;;5012414;28;20458;-66
2023/02/15 06:24:18;;;;;;;5.03;3.20;;;-1.50;98.00;;;;;;5012311;28;20453;-66
2023/02/15 06:26:45;;;;;;;9.57;3.00;;;-1.40;98.00;;;;;;5012682;28;20461;-66
2023/02/15 06:29:12;;;;;;;8.80;4.33;;;-1.40;98.00;;;;;;5011048;28;20464;-66
2023/02/15 06:31:40;;;;;;;6.23;3.67;;;-1.20;98.00;;;;;;5011057;28;20987;-66
2023/02/15 06:34:09;;;;;;;4.70;2.97;;;-1.30;98.00;;;;;;5011232;28;20466;-66
2023/02/15 06:36:43;;;;;;;8.23;3.53;;;-1.20;98.00;;;;;;5012188;28;20458;-66
2023/02/15 06:39:10;;;;;;;10.90;3.30;;;-1.10;98.00;;;;;;5010771;28;20490;-66
2023/02/15 06:41:38;;;;;;;5.57;3.43;;;-1.10;98.00;;;;;;5012063;28;20458;-66
2023/02/15 06:44:05;;;;;;;6.60;3.53;;;-1.10;98.00;;;;;;5012037;28;20831;-66
2023/02/15 06:46:33;;;;;;;8.33;2.80;;;-1.20;98.00;;;;;;5012244;28;20463;-64
2023/02/15 06:49:00;;;;;;;6.60;3.53;;;-1.20;98.00;;;;;;5011482;28;20466;-64
2023/02/15 06:51:29;;;;;;;5.93;2.80;;;-1.20;98.00;;;;;;4995404;28;20458;-64
2023/02/15 06:53:56;;;;;;;6.80;3.50;;;-1.20;98.00;;;;;;5012511;28;20454;-64
2023/02/15 06:56:24;;;;;;;10.10;2.93;;;-1.20;98.00;;;;;;5012589;28;20465;-65
2023/02/15 06:58:52;;;;;;;3.00;2.60;;;-1.20;98.00;;;;;;5012396;28;20490;-65
2023/02/15 07:01:20;;;;;;;6.63;3.67;;;-1.10;98.00;;;;;;5012748;28;20450;-66
2023/02/15 07:03:47;;;;;;;5.53;3.67;;;-1.30;98.00;;;;;;5011532;28;20458;-71
2023/02/15 07:06:14;;;;;;;7.80;3.20;;;-1.30;98.00;;;;;;5012308;28;20455;-71
2023/02/15 07:08:43;;;;;;;4.37;3.03;;;-1.40;98.00;;;;;;5011970;28;20458;-71
2023/02/15 07:13:54;;;;;;;3.97;2.57;;;-1.40;98.00;;;;;;5012346;28;20816;-71
2023/02/15 07:16:22;;;;;;;2.70;2.47;;;-1.50;98.00;;;;;;5012178;28;20805;-71
2023/02/15 07:18:49;;;;;;;4.60;3.10;;;-1.60;98.00;;;;;;5011919;28;20491;-71
2023/02/15 07:21:17;;;;;;;3.73;2.87;;;-1.60;98.00;;;;;;5012198;28;20466;-71
2023/02/15 07:23:45;;;;;;;6.83;3.77;;;-1.60;98.00;;;;;;5012266;28;20484;-72
2023/02/15 07:26:12;;;;;;;4.93;2.97;;;-1.60;98.00;;;;;;5012142;28;20456;-72
2023/02/15 07:28:40;;;;;;;3.60;2.30;;;-1.60;98.00;;;;;;5012135;28;20462;-72
2023/02/15 07:31:07;;;;;;;3.37;2.87;;;-1.50;98.00;;;;;;5012000;28;20466;-71
2023/02/15 07:33:35;;;;;;;6.40;3.40;;;-1.50;98.00;;;;;;5011925;28;21165;-71
2023/02/15 07:36:05;;;;;;;3.33;2.90;;;-1.30;98.00;;;;;;5012121;28;20972;-71
2023/02/15 07:38:35;;;;;;;12.47;4.70;;;-1.20;98.00;;;;;;5011869;28;20513;-70
2023/02/15 07:41:06;;;;;;;6.60;3.70;;;-1.10;98.00;;;;;;5011990;28;20475;-70
2023/02/15 07:43:35;;;;;;;6.47;3.70;;;-1.10;98.00;;;;;;5012003;28;20474;-68
2023/02/15 07:46:04;;;;;;;4.73;3.53;;;-1.10;98.00;;;;;;5011984;28;20537;-73
2023/02/15 07:48:31;;;;;;;7.40;3.40;;;-1.10;98.00;;;;;;5011842;28;20494;-72
2023/02/15 07:51:00;;;;;;;5.90;3.60;;;-1.10;98.00;;;;;;5012057;28;20467;-71
2023/02/15 07:53:27;;;;;;;4.03;2.73;;;-1.00;98.00;;;;;;5011720;28;20462;-74
2023/02/15 07:55:55;;;;;;;8.33;3.67;;;-1.00;98.00;;;;;;5015924;28;20459;-74
2023/02/15 07:58:50;;;;;;;7.10;4.37;;;-0.90;98.00;;;;;;5015732;28;20473;-74
2023/02/15 08:01:13;;;;;;;10.97;3.80;;;-0.80;98.00;;;;;;5015847;28;20501;-74
2023/02/15 08:03:41;;;;;;;3.83;2.60;;;-0.70;98.00;;;;;;5015856;28;20481;-73
2023/02/15 08:06:09;;;;;;;8.07;3.40;;;-0.70;98.00;;;;;;5015766;28;20503;-73
2023/02/15 08:08:37;;;;;;;9.87;3.97;;;-0.60;98.00;;;;;;5015501;28;20861;-73
2023/02/15 08:13:55;;;;;;;9.17;3.13;;;-0.50;98.00;;;;;;5015323;28;20453;-73
2023/02/15 08:16:28;;;;;;;6.20;4.00;;;-0.50;98.00;;;;;;5015234;28;20466;-73
2023/02/15 08:18:57;;;;;;;4.67;3.57;;;-0.40;98.00;;;;;;5015149;28;20490;-74
2023/02/15 08:21:26;;;;;;;7.10;3.90;;;-0.30;98.00;;;;;;5015317;28;20467;-73
2023/02/15 08:23:59;;;;;;;6.50;3.20;;;-0.20;98.00;;;;;;5015076;28;20458;-74
2023/02/15 08:26:28;;;;;;;11.60;5.23;;;-0.10;98.00;;;;;;5015244;28;20927;-74
2023/02/15 08:28:58;;;;;;;7.60;3.17;;;0.00;98.00;;;;;;5015331;28;20465;-73
2023/02/15 08:31:26;;;;;;;8.70;3.80;;;0.20;98.00;;;;;;5015239;28;20485;-74
2023/02/15 08:33:56;;;;;;;7.43;4.27;;;0.40;98.00;;;;;;5015020;28;20477;-77
2023/02/15 08:36:27;;;;;;;4.33;3.33;;;0.50;98.00;;;;;;5015268;28;20470;-72
2023/02/15 08:38:58;;;;;;;8.40;4.67;;;0.60;98.00;;;;;;5014704;28;20453;-72
2023/02/15 08:41:29;;;;;;;4.10;2.70;;;0.70;98.00;;;;;;5019099;28;20458;-74
2023/02/15 08:43:59;;;;;;;4.20;3.00;;;0.90;98.00;;;;;;5014489;28;20930;-73
2023/02/15 08:46:28;;;;;;;6.07;3.87;;;1.00;98.00;;;;;;5014808;28;20964;-74
2023/02/15 08:48:55;;;;;;;16.67;6.37;;;1.10;98.00;;;;;;5029916;28;20462;-71
2023/02/15 08:51:24;;;;;;;10.87;5.87;;;1.10;98.00;;;;;;5034464;28;20462;-71
2023/02/15 08:53:54;;;;;;;7.03;4.60;;;1.20;98.00;;;;;;5034334;28;20463;-71
2023/02/15 08:56:25;;;;;;;9.10;4.40;;;1.20;98.00;;;;;;5034565;28;20455;-70
2023/02/15 08:58:53;;;;;;;9.90;4.60;;;1.30;98.00;;;;;;5034382;28;20468;-70
2023/02/15 09:01:23;;;;;;;9.03;3.93;;;1.30;98.00;;;;;;5034603;28;20485;-73
2023/02/15 09:03:53;;;;;;;9.77;4.00;;;1.50;98.00;;;;;;5016652;28;20866;-70
2023/02/15 09:06:21;;;;;;;7.20;4.80;;;1.50;98.00;;;;;;5033010;28;21038;-71
2023/02/15 09:08:49;;;;;;;14.10;4.00;;;1.50;98.00;;;;;;5033752;28;20528;-70
2023/02/15 09:11:22;;;;;;;18.87;5.77;;;1.50;98.00;;;;;;5034077;28;20450;-74
2023/02/15 09:13:51;;;;;;;8.47;5.00;;;1.60;98.00;;;;;;5033807;28;20466;-74
2023/02/15 09:16:18;;;;;;;7.57;4.40;;;1.70;98.00;;;;;;5033871;28;20477;-75
2023/02/15 09:18:47;;;;;;;15.20;6.20;;;1.80;98.00;;;;;;5033827;28;20539;-72
2023/02/15 09:21:16;;;;;;;11.20;5.17;;;1.90;98.00;;;;;;5033812;28;20463;-74
2023/02/15 09:23:45;;;;;;;9.47;5.23;;;1.90;98.00;;;;;;5033752;28;20459;-73
2023/02/15 09:26:13;;;;;;;7.93;4.10;;;2.00;98.00;;;;;;5033622;28;20494;-75
2023/02/15 09:28:41;;;;;;;9.87;4.37;;;2.10;98.00;;;;;;5033313;28;20459;-74
2023/02/15 09:31:11;;;;;;;8.80;4.83;;;2.10;98.00;;;;;;5033715;28;20455;-74
2023/02/15 09:33:39;;;;;;;11.50;5.80;;;2.30;98.00;;;;;;5033713;28;20459;-73
2023/02/15 09:36:18;;;;;;;14.97;5.40;;;2.50;98.00;;;;;;5033184;28;20467;-74
2023/02/15 09:38:46;;;;;;;8.30;5.13;;;2.80;98.00;;;;;;5035494;28;20796;-72
2023/02/15 09:41:33;;;;;;;11.73;4.97;;;2.90;98.00;;;;;;5033484;28;20550;-74
2023/02/15 09:44:10;;;;;;;10.83;5.40;;;3.20;98.00;;;;;;5033222;28;20455;-75
2023/02/15 09:46:57;;;;;;;10.07;5.53;;;3.30;98.00;;;;;;5032923;28;20973;-76
2023/02/15 09:49:32;;;;;;;7.13;3.73;;;3.60;98.00;;;;;;5030515;28;20967;-77
2023/02/15 09:52:28;;;;;;;7.20;4.23;;;3.60;98.00;;;;;;5030377;28;20458;-76
2023/02/15 09:55:20;;;;;;;10.53;3.57;;;3.80;98.00;;;;;;5030285;28;20982;-77
2023/02/15 09:57:54;;;;;;;8.00;5.20;;;3.90;98.00;;;;;;5026196;28;20555;-76
2023/02/15 10:00:32;;;;;;;6.13;3.70;;;4.00;98.00;;;;;;5029378;28;20499;-77
2023/02/15 10:03:31;;;;;;;7.83;4.73;;;4.20;98.00;;;;;;5031458;28;20470;-76
2023/02/15 10:06:17;;;;;;;5.47;3.63;;;4.30;98.00;;;;;;5030723;28;20457;-74
2023/02/15 10:09:06;;;;;;;6.60;4.00;;;4.40;98.00;;;;;;5025810;28;20481;-77
2023/02/15 10:11:53;;;;;;;4.90;3.20;;;4.60;98.00;;;;;;5032734;28;21002;-76
2023/02/15 10:14:56;;;;;;;18.10;5.00;;;4.60;98.00;;;;;;5032701;28;20462;-76
2023/02/15 10:17:38;;;;;;;9.20;4.37;;;4.70;98.00;;;;;;5031695;28;20472;-76
2023/02/15 10:20:18;;;;;;;6.87;3.53;;;4.90;98.00;;;;;;5032527;28;20492;-77
2023/02/15 10:23:03;;;;;;;6.10;3.77;;;5.00;98.00;;;;;;5032619;28;20465;-76
2023/02/15 10:25:43;;;;;;;8.00;3.60;;;5.20;98.00;;;;;;5032756;28;20473;-77
2023/02/15 10:28:16;;;;;;;7.07;3.23;;;5.30;98.00;;;;;;5012781;28;20498;-76
2023/02/15 10:30:48;;;;;;;8.00;4.30;;;5.60;98.00;;;;;;5012407;28;20512;-76
2023/02/15 10:33:28;;;;;;;8.17;3.80;;;5.80;98.00;;;;;;5012696;28;20467;-76
2023/02/15 10:36:02;;;;;;;7.10;3.47;;;5.90;98.00;;;;;;5012687;28;20456;-77
2023/02/15 10:38:37;;;;;;;7.03;3.30;;;5.90;98.00;;;;;;5012899;28;20457;-77
2023/02/15 10:41:21;;;;;;;7.10;4.10;;;6.00;98.00;;;;;;5030158;28;21186;-77
2023/02/15 10:44:02;;;;;;;12.03;3.80;;;6.20;98.00;;;;;;5032419;28;20463;-77
2023/02/15 10:46:47;;;;;;;7.17;3.77;;;6.40;98.00;;;;;;5032497;28;20548;-77
2023/02/15 10:49:38;;;;;;;6.30;4.20;;;6.50;98.00;;;;;;5032164;28;20909;-78
2023/02/15 10:52:22;;;;;;;14.30;4.40;;;6.60;98.00;;;;;;5031024;28;20463;-78
2023/02/15 10:55:03;;;;;;;7.70;3.57;;;6.70;98.00;;;;;;5032099;28;20816;-77
2023/02/15 10:57:49;;;;;;;13.03;4.90;;;6.90;98.00;;;;;;5032288;28;20464;-76
2023/02/15 11:00:23;;;;;;;8.10;4.37;;;7.10;98.00;;;;;;5032718;28;20486;-77
2023/02/15 11:03:10;;;;;;;7.40;4.27;;;7.10;98.00;;;;;;5032316;28;20945;-77
2023/02/15 11:05:48;;;;;;;11.80;4.60;;;7.20;98.00;;;;;;5030254;28;20466;-77
2023/02/15 11:08:17;;;;;;;10.07;4.50;;;7.40;98.00;;;;;;5031768;28;20454;-78
2023/02/15 11:10:50;;;;;;;9.73;4.33;;;7.70;98.00;;;;;;5031931;28;20484;-77
2023/02/15 11:13:21;;;;;;;13.37;5.27;;;7.90;98.00;;;;;;5031771;28;20547;-77
2023/02/15 11:15:53;;;;;;;8.87;4.00;;;8.20;98.00;;;;;;5031849;28;20825;-77
2023/02/15 11:18:29;;;;;;;12.90;5.40;;;8.50;98.00;;;;;;5031728;28;20468;-77
2023/02/15 11:21:02;;;;;;;11.87;5.20;;;8.80;98.00;;;;;;5031481;28;20843;-77
2023/02/15 11:23:31;;;;;;;15.63;5.50;;;9.10;98.00;;;;;;5031547;28;20469;-77
2023/02/15 11:26:01;;;;;;;11.00;5.03;;;9.40;98.00;;;;;;5031398;28;20465;-77
2023/02/15 11:28:37;;;;;;;11.80;5.80;;;9.70;98.00;;;;;;5030640;28;20466;-78
2023/02/15 11:31:16;;;;;;;11.03;5.63;;;9.80;98.00;;;;;;5031502;28;20462;-78
2023/02/15 11:33:48;;;;;;;18.77;6.80;;;10.00;98.00;;;;;;5031532;28;21012;-77
2023/02/15 11:36:19;;;;;;;13.37;5.97;;;10.30;98.00;;;;;;5032606;28;20556;-77
2023/02/15 11:38:51;;;;;;;13.57;5.53;;;10.70;98.00;;;;;;5031704;28;20458;-78
2023/02/15 11:41:24;;;;;;;9.30;4.80;;;11.10;98.00;;;;;;5031747;28;20518;-78
2023/02/15 11:43:59;;;;;;;11.23;5.07;;;11.50;98.00;;;;;;5031431;28;20459;-79
2023/02/15 11:46:27;;;;;;;14.10;5.60;;;11.90;98.00;;;;;;5031994;28;20952;-78
2023/02/15 11:48:54;;;;;;;12.90;5.67;;;12.20;98.00;;;;;;5031606;28;20463;-79
2023/02/15 11:51:23;;;;;;;15.20;6.63;;;12.60;98.00;;;;;;5031770;28;20488;-78
2023/02/15 11:53:51;;;;;;;13.20;6.23;;;12.90;98.00;;;;;;5031610;28;20459;-78
2023/02/15 11:56:23;;;;;;;16.57;6.40;;;13.00;98.00;;;;;;5031679;28;20537;-78
2023/02/15 11:58:56;;;;;;;14.63;6.03;;;13.10;97.30;;;;;;5031564;28;20453;-78
2023/02/15 12:01:31;;;;;;;24.83;7.03;;;13.50;97.40;;;;;;5031786;28;21109;-79
2023/02/15 12:04:05;;;;;;;24.23;6.90;;;13.90;96.70;;;;;;5031411;28;20454;-78
2023/02/15 12:06:38;;;;;;;15.57;6.40;;;14.20;96.30;;;;;;5031623;28;20454;-79
2023/02/15 12:09:26;;;;;;;16.87;6.87;;;14.40;94.90;;;;;;5030887;28;20477;-77
2023/02/15 12:11:54;;;;;;;18.03;6.10;;;14.60;94.70;;;;;;5031278;28;20460;-78
2023/02/15 12:14:23;;;;;;;19.00;6.53;;;14.70;93.40;;;;;;5031216;28;20563;-79
2023/02/15 12:16:53;;;;;;;13.47;6.30;;;14.80;93.30;;;;;;5030952;28;20451;-76
2023/02/15 12:19:29;;;;;;;15.43;6.43;;;14.80;92.50;;;;;;5031352;28;20458;-77
2023/02/15 12:21:59;;;;;;;14.47;6.40;;;15.00;91.70;;;;;;5031002;28;20487;-77
2023/02/15 12:24:30;;;;;;;17.17;6.70;;;15.30;93.20;;;;;;5031152;28;20523;-76
2023/02/15 12:27:02;;;;;;;12.60;6.60;;;15.60;90.10;;;;;;5030978;28;20456;-75
2023/02/15 12:29:36;;;;;;;14.33;5.97;;;15.60;90.80;;;;;;5031183;28;20467;-75
2023/02/15 12:32:05;;;;;;;15.90;6.57;;;15.80;89.00;;;;;;5031077;28;20455;-74
2023/02/15 12:34:39;;;;;;;15.17;6.87;;;15.50;89.00;;;;;;5031107;28;20462;-73
2023/02/15 12:37:15;;;;;;;14.97;6.67;;;15.70;89.10;;;;;;5031094;28;20493;-74
2023/02/15 12:39:55;;;;;;;13.70;6.50;;;15.90;88.50;;;;;;5031590;28;20945;-74
2023/02/15 12:42:23;;;;;;;12.93;5.70;;;16.10;87.90;;;;;;5034813;28;20471;-76
2023/02/15 12:45:01;;;;;;;13.60;6.50;;;16.30;87.80;;;;;;5034545;28;20543;-75
2023/02/15 12:47:30;;;;;;;15.63;7.07;;;16.60;86.60;;;;;;5034679;28;20459;-73
2023/02/15 12:50:17;;;;;;;14.13;6.30;;;16.70;87.40;;;;;;5034131;28;20468;-76
2023/02/15 12:52:47;;;;;;;16.10;7.10;;;16.90;86.50;;;;;;5034512;28;20843;-78
2023/02/15 12:55:26;;;;;;;16.83;6.43;;;17.20;85.50;;;;;;5034455;28;20536;-76
2023/02/15 12:58:09;;;;;;;16.07;7.60;;;17.40;85.30;;;;;;5034374;28;20548;-76
2023/02/15 13:00:38;;;;;;;18.73;6.93;;;17.20;85.40;;;;;;5031970;28;20497;-76
2023/02/15 13:03:06;;;;;;;13.47;6.50;;;17.30;84.60;;;;;;5032615;28;20629;-78
2023/02/15 13:05:37;;;;;;;15.57;6.87;;;17.50;85.40;;;;;;5025733;28;20493;-77
2023/02/15 13:08:10;;;;;;;15.90;7.27;;;17.80;83.80;;;;;;5033722;28;20463;-77
2023/02/15 13:10:42;;;;;;;15.20;6.77;;;18.00;83.20;;;;;;5034288;28;20470;-77
2023/02/15 13:13:21;;;;;;;15.53;5.90;;;18.20;82.10;;;;;;5034350;28;20459;-76
2023/02/15 13:15:52;;;;;;;18.60;5.50;;;18.30;80.80;;;;;;5034304;28;20454;-76
2023/02/15 13:18:28;;;;;;;13.13;5.40;;;18.50;78.70;;;;;;5034213;28;20545;-77
2023/02/15 13:20:55;;;;;;;14.00;5.70;;;18.50;78.80;;;;;;5033906;28;20482;-78
2023/02/15 13:23:30;;;;;;;15.57;6.60;;;18.70;77.70;;;;;;5034097;28;20461;-79
2023/02/15 13:25:59;;;;;;;13.67;7.07;;;18.80;77.70;;;;;;5032610;28;20462;-78
2023/02/15 13:28:36;;;;;;;15.00;6.33;;;18.80;78.70;;;;;;5034449;28;20550;-78
2023/02/15 13:31:07;;;;;;;11.87;5.47;;;19.00;77.80;;;;;;5037759;28;20473;-79
2023/02/15 13:33:37;;;;;;;14.27;6.03;;;19.00;77.40;;;;;;5039358;28;20465;-79
2023/02/15 13:36:14;;;;;;;10.47;5.03;;;19.00;77.10;;;;;;5037728;28;20451;-78
2023/02/15 13:39:05;;;;;;;13.20;6.40;;;19.10;76.80;;;;;;5033895;28;20542;-78